sensor_id;sensor_type;location;lat;lon;timestamp;pressure;altitude;pressure_sealevel;temperature;humidity
49999;BME280;68071;45.062;7.356;2023-03-01T00:02:48;95429.06;;;0.86;94.36
49999;BME280;68071;45.062;7.356;2023-03-01T00:05:52;95426.78;;;1.75;81.67
49999;BME280;68071;45.062;7.356;2023-03-01T00:08:56;95433.16;;;1.42;85.70
49999;BME280;68071;45.062;7.356;2023-03-01T00:12:00;95433.50;;;1.41;85.89
49999;BME280;68071;45.062;7.356;2023-03-01T00:15:04;95426.44;;;1.52;84.16
49999;BME280;68071;45.062;7.356;2023-03-01T00:18:08;95416.72;;;1.26;87.96
49999;BME280;68071;45.062;7.356;2023-03-01T00:21:13;95419.78;;;1.37;85.06
49999;BME280;68071;45.062;7.356;2023-03-01T00:24:17;95410.03;;;0.99;89.92
49999;BME280;68071;45.062;7.356;2023-03-01T00:27:20;95422.72;;;1.07;89.10
49999;BME280;68071;45.062;7.356;2023-03-01T00:30:25;95412.41;;;0.88;92.34
49999;BME280;68071;45.062;7.356;2023-03-01T00:33:30;95407.06;;;0.92;91.27
49999;BME280;68071;45.062;7.356;2023-03-01T00:36:36;95409.69;;;1.00;90.81
49999;BME280;68071;45.062;7.356;2023-03-01T00:39:40;95402.78;;;1.40;84.25
49999;BME280;68071;45.062;7.356;2023-03-01T00:42:44;95395.03;;;1.05;88.91
49999;BME280;68071;45.062;7.356;2023-03-01T00:45:48;95392.00;;;1.07;89.01
49999;BME280;68071;45.062;7.356;2023-03-01T00:48:53;95393.94;;;0.81;92.99
49999;BME280;68071;45.062;7.356;2023-03-01T00:51:57;95394.38;;;0.96;90.55
49999;BME280;68071;45.062;7.356;2023-03-01T00:55:02;95393.81;;;0.90;91.28
49999;BME280;68071;45.062;7.356;2023-03-01T00:58:06;95398.13;;;0.91;92.45
49999;BME280;68071;45.062;7.356;2023-03-01T01:01:19;95378.50;;;0.73;94.34
49999;BME280;68071;45.062;7.356;2023-03-01T01:04:23;95385.66;;;0.90;90.19
49999;BME280;68071;45.062;7.356;2023-03-01T01:07:27;95376.47;;;0.95;91.13
49999;BME280;68071;45.062;7.356;2023-03-01T01:10:33;95367.25;;;1.36;86.35
49999;BME280;68071;45.062;7.356;2023-03-01T01:13:38;95360.03;;;1.03;89.94
49999;BME280;68071;45.062;7.356;2023-03-01T01:16:44;95357.88;;;0.97;90.42
49999;BME280;68071;45.062;7.356;2023-03-01T01:19:48;95357.88;;;0.97;91.88
49999;BME280;68071;45.062;7.356;2023-03-01T01:22:52;95354.69;;;0.95;92.21
49999;BME280;68071;45.062;7.356;2023-03-01T01:25:56;95344.47;;;0.92;92.49
49999;BME280;68071;45.062;7.356;2023-03-01T01:29:03;95346.97;;;0.97;91.19
49999;BME280;68071;45.062;7.356;2023-03-01T01:32:08;95341.19;;;0.86;93.82
49999;BME280;68071;45.062;7.356;2023-03-01T01:35:12;95338.59;;;1.02;90.00
49999;BME280;68071;45.062;7.356;2023-03-01T01:38:16;95341.88;;;0.95;92.29
49999;BME280;68071;45.062;7.356;2023-03-01T01:41:21;95340.41;;;0.98;93.13
49999;BME280;68071;45.062;7.356;2023-03-01T01:44:28;95328.97;;;0.67;95.67
49999;BME280;68071;45.062;7.356;2023-03-01T01:47:33;95322.50;;;0.72;93.10
49999;BME280;68071;45.062;7.356;2023-03-01T01:50:38;95326.22;;;1.04;90.60
49999;BME280;68071;45.062;7.356;2023-03-01T01:53:46;95318.91;;;1.33;93.38
49999;BME280;68071;45.062;7.356;2023-03-01T01:56:59;95325.44;;;1.04;93.49
49999;BME280;68071;45.062;7.356;2023-03-01T02:00:13;95322.16;;;0.73;92.64
49999;BME280;68071;45.062;7.356;2023-03-01T02:03:26;95319.09;;;0.75;93.72
49999;BME280;68071;45.062;7.356;2023-03-01T02:06:37;95324.75;;;0.57;96.15
49999;BME280;68071;45.062;7.356;2023-03-01T02:09:45;95316.94;;;0.68;96.91
49999;BME280;68071;45.062;7.356;2023-03-01T02:12:50;95312.41;;;1.10;95.36
49999;BME280;68071;45.062;7.356;2023-03-01T02:15:55;95320.44;;;0.56;97.49
49999;BME280;68071;45.062;7.356;2023-03-01T02:18:59;95324.41;;;0.47;100.00
49999;BME280;68071;45.062;7.356;2023-03-01T02:25:29;95308.22;;;0.63;94.45
49999;BME280;68071;45.062;7.356;2023-03-01T02:28:36;95307.47;;;0.16;100.00
49999;BME280;68071;45.062;7.356;2023-03-01T02:31:40;95310.78;;;0.22;100.00
49999;BME280;68071;45.062;7.356;2023-03-01T02:34:45;95311.94;;;0.45;98.73
49999;BME280;68071;45.062;7.356;2023-03-01T02:37:49;95317.84;;;0.60;96.78
49999;BME280;68071;45.062;7.356;2023-03-01T02:40:54;95306.38;;;0.92;93.41
49999;BME280;68071;45.062;7.356;2023-03-01T02:44:00;95301.41;;;0.94;92.09
49999;BME280;68071;45.062;7.356;2023-03-01T02:47:05;95291.41;;;0.85;91.12
49999;BME280;68071;45.062;7.356;2023-03-01T02:50:44;95290.53;;;1.47;84.30
49999;BME280;68071;45.062;7.356;2023-03-01T02:57:03;95287.22;;;1.54;81.79
49999;BME280;68071;45.062;7.356;2023-03-01T03:00:11;95287.69;;;1.43;82.25
49999;BME280;68071;45.062;7.356;2023-03-01T03:03:22;95287.34;;;0.92;90.19
49999;BME280;68071;45.062;7.356;2023-03-01T03:06:26;95284.88;;;0.62;93.52
49999;BME280;68071;45.062;7.356;2023-03-01T03:09:31;95287.59;;;0.62;94.42
49999;BME280;68071;45.062;7.356;2023-03-01T03:12:35;95263.97;;;1.03;89.21
49999;BME280;68071;45.062;7.356;2023-03-01T03:15:42;95256.19;;;1.30;83.65
49999;BME280;68071;45.062;7.356;2023-03-01T03:18:46;95254.78;;;0.95;88.91
49999;BME280;68071;45.062;7.356;2023-03-01T03:21:50;95253.16;;;0.66;93.98
49999;BME280;68071;45.062;7.356;2023-03-01T03:24:54;95244.28;;;0.69;93.06
49999;BME280;68071;45.062;7.356;2023-03-01T03:27:58;95241.69;;;0.72;93.29
49999;BME280;68071;45.062;7.356;2023-03-01T03:31:05;95241.81;;;0.64;94.83
49999;BME280;68071;45.062;7.356;2023-03-01T03:34:10;95243.06;;;0.66;93.71
49999;BME280;68071;45.062;7.356;2023-03-01T03:37:21;95243.38;;;0.77;90.78
49999;BME280;68071;45.062;7.356;2023-03-01T03:40:52;95234.22;;;0.69;91.54
49999;BME280;68071;45.062;7.356;2023-03-01T03:44:04;95233.41;;;0.69;93.27
49999;BME280;68071;45.062;7.356;2023-03-01T03:47:08;95228.88;;;0.73;90.47
49999;BME280;68071;45.062;7.356;2023-03-01T03:50:14;95227.16;;;0.93;93.82
49999;BME280;68071;45.062;7.356;2023-03-01T03:53:19;95227.19;;;0.68;94.80
49999;BME280;68071;45.062;7.356;2023-03-01T03:56:24;95217.84;;;0.94;94.77
49999;BME280;68071;45.062;7.356;2023-03-01T03:59:29;95224.53;;;0.97;94.78
49999;BME280;68071;45.062;7.356;2023-03-01T04:02:33;95223.84;;;0.87;93.50
49999;BME280;68071;45.062;7.356;2023-03-01T04:05:38;95225.72;;;0.34;100.00
49999;BME280;68071;45.062;7.356;2023-03-01T04:08:42;95225.84;;;0.37;96.68
49999;BME280;68071;45.062;7.356;2023-03-01T04:11:46;95214.63;;;0.39;95.68
49999;BME280;68071;45.062;7.356;2023-03-01T04:14:50;95214.41;;;0.44;96.11
49999;BME280;68071;45.062;7.356;2023-03-01T04:17:55;95208.25;;;0.72;95.67
49999;BME280;68071;45.062;7.356;2023-03-01T04:20:59;95210.56;;;0.45;95.73
49999;BME280;68071;45.062;7.356;2023-03-01T04:24:04;95216.44;;;0.22;98.07
49999;BME280;68071;45.062;7.356;2023-03-01T04:27:08;95209.97;;;0.02;100.00
49999;BME280;68071;45.062;7.356;2023-03-01T04:30:12;95214.53;;;0.35;98.56
49999;BME280;68071;45.062;7.356;2023-03-01T04:33:16;95218.81;;;0.24;100.00
49999;BME280;68071;45.062;7.356;2023-03-01T04:36:23;95216.66;;;0.54;100.00
49999;BME280;68071;45.062;7.356;2023-03-01T04:39:28;95220.19;;;0.30;100.00
49999;BME280;68071;45.062;7.356;2023-03-01T04:42:32;95211.69;;;0.19;100.00
49999;BME280;68071;45.062;7.356;2023-03-01T04:45:36;95195.69;;;0.42;96.65
49999;BME280;68071;45.062;7.356;2023-03-01T04:48:42;95204.63;;;0.68;91.38
49999;BME280;68071;45.062;7.356;2023-03-01T04:51:46;95205.53;;;0.72;89.54
49999;BME280;68071;45.062;7.356;2023-03-01T04:54:51;95202.16;;;0.63;92.98
49999;BME280;68071;45.062;7.356;2023-03-01T04:57:55;95211.00;;;0.59;94.26
49999;BME280;68071;45.062;7.356;2023-03-01T05:00:58;95204.00;;;0.46;96.59
49999;BME280;68071;45.062;7.356;2023-03-01T05:04:03;95202.28;;;0.41;96.10
49999;BME280;68071;45.062;7.356;2023-03-01T05:07:09;95209.47;;;0.87;89.91
49999;BME280;68071;45.062;7.356;2023-03-01T05:10:13;95210.50;;;0.82;90.50
49999;BME280;68071;45.062;7.356;2023-03-01T05:13:17;95205.78;;;1.08;86.34
49999;BME280;68071;45.062;7.356;2023-03-01T05:16:24;95206.69;;;1.12;86.12
49999;BME280;68071;45.062;7.356;2023-03-01T05:19:28;95216.91;;;1.02;87.01
49999;BME280;68071;45.062;7.356;2023-03-01T05:22:37;95205.94;;;0.99;86.39
49999;BME280;68071;45.062;7.356;2023-03-01T05:25:42;95200.81;;;1.38;80.44
49999;BME280;68071;45.062;7.356;2023-03-01T05:28:46;95210.19;;;1.41;79.79
49999;BME280;68071;45.062;7.356;2023-03-01T05:34:56;95201.94;;;0.55;92.54
49999;BME280;68071;45.062;7.356;2023-03-01T05:38:00;95204.41;;;0.60;94.56
49999;BME280;68071;45.062;7.356;2023-03-01T05:41:04;95201.13;;;0.42;94.31
49999;BME280;68071;45.062;7.356;2023-03-01T05:44:07;95197.97;;;0.53;93.25
49999;BME280;68071;45.062;7.356;2023-03-01T05:47:11;95199.66;;;0.57;92.83
49999;BME280;68071;45.062;7.356;2023-03-01T05:50:29;95192.19;;;0.42;94.25
49999;BME280;68071;45.062;7.356;2023-03-01T05:53:33;95193.78;;;0.30;95.70
49999;BME280;68071;45.062;7.356;2023-03-01T05:56:37;95194.38;;;0.36;94.55
49999;BME280;68071;45.062;7.356;2023-03-01T05:59:41;95188.13;;;0.23;98.40
49999;BME280;68071;45.062;7.356;2023-03-01T06:02:45;95187.78;;;0.25;95.60
49999;BME280;68071;45.062;7.356;2023-03-01T06:05:49;95192.09;;;0.26;97.29
49999;BME280;68071;45.062;7.356;2023-03-01T06:08:53;95200.81;;;0.19;98.93
49999;BME280;68071;45.062;7.356;2023-03-01T06:11:57;95198.22;;;0.35;94.30
49999;BME280;68071;45.062;7.356;2023-03-01T06:15:02;95197.06;;;0.49;91.72
49999;BME280;68071;45.062;7.356;2023-03-01T06:18:08;95190.34;;;0.71;89.08
49999;BME280;68071;45.062;7.356;2023-03-01T06:21:11;95199.88;;;0.65;89.05
49999;BME280;68071;45.062;7.356;2023-03-01T06:24:15;95204.34;;;0.85;91.23
49999;BME280;68071;45.062;7.356;2023-03-01T06:27:19;95203.16;;;0.70;92.71
49999;BME280;68071;45.062;7.356;2023-03-01T06:30:25;95201.66;;;0.73;93.41
49999;BME280;68071;45.062;7.356;2023-03-01T06:33:29;95206.59;;;0.55;94.71
49999;BME280;68071;45.062;7.356;2023-03-01T06:36:33;95203.84;;;0.42;96.55
49999;BME280;68071;45.062;7.356;2023-03-01T06:39:37;95210.66;;;0.49;93.84
49999;BME280;68071;45.062;7.356;2023-03-01T06:42:43;95216.31;;;0.56;92.58
49999;BME280;68071;45.062;7.356;2023-03-01T06:45:47;95215.16;;;0.57;93.27
49999;BME280;68071;45.062;7.356;2023-03-01T06:48:51;95223.47;;;0.60;93.44
49999;BME280;68071;45.062;7.356;2023-03-01T06:51:55;95225.03;;;0.62;93.30
49999;BME280;68071;45.062;7.356;2023-03-01T06:54:59;95210.25;;;1.00;87.20
49999;BME280;68071;45.062;7.356;2023-03-01T06:58:03;95203.25;;;1.15;85.44
49999;BME280;68071;45.062;7.356;2023-03-01T07:01:08;95202.63;;;1.34;82.58
49999;BME280;68071;45.062;7.356;2023-03-01T07:04:13;95206.34;;;1.42;82.56
49999;BME280;68071;45.062;7.356;2023-03-01T07:07:19;95213.22;;;1.23;86.13
49999;BME280;68071;45.062;7.356;2023-03-01T07:10:42;95206.38;;;1.01;91.24
49999;BME280;68071;45.062;7.356;2023-03-01T07:13:46;95201.47;;;1.07;91.88
49999;BME280;68071;45.062;7.356;2023-03-01T07:16:50;95198.94;;;1.14;92.76
49999;BME280;68071;45.062;7.356;2023-03-01T07:19:54;95208.66;;;1.27;94.05
49999;BME280;68071;45.062;7.356;2023-03-01T07:22:58;95206.78;;;1.44;93.54
49999;BME280;68071;45.062;7.356;2023-03-01T07:26:02;95202.13;;;1.16;94.54
49999;BME280;68071;45.062;7.356;2023-03-01T07:29:07;95197.22;;;1.50;93.60
49999;BME280;68071;45.062;7.356;2023-03-01T07:32:12;95202.66;;;1.78;92.99
49999;BME280;68071;45.062;7.356;2023-03-01T07:35:15;95193.50;;;1.42;90.09
49999;BME280;68071;45.062;7.356;2023-03-01T07:38:19;95198.22;;;1.74;87.76
49999;BME280;68071;45.062;7.356;2023-03-01T07:41:23;95199.13;;;2.26;85.04
49999;BME280;68071;45.062;7.356;2023-03-01T07:44:27;95208.63;;;2.32;85.07
49999;BME280;68071;45.062;7.356;2023-03-01T07:47:32;95215.84;;;2.24;84.64
49999;BME280;68071;45.062;7.356;2023-03-01T07:50:36;95204.16;;;2.08;83.65
49999;BME280;68071;45.062;7.356;2023-03-01T07:53:40;95218.59;;;1.64;83.12
49999;BME280;68071;45.062;7.356;2023-03-01T07:56:44;95203.66;;;1.58;82.98
49999;BME280;68071;45.062;7.356;2023-03-01T07:59:48;95192.94;;;1.65;82.27
49999;BME280;68071;45.062;7.356;2023-03-01T08:02:52;95197.88;;;1.75;81.25
49999;BME280;68071;45.062;7.356;2023-03-01T08:05:59;95191.13;;;1.85;80.73
49999;BME280;68071;45.062;7.356;2023-03-01T08:09:03;95191.47;;;2.48;79.11
49999;BME280;68071;45.062;7.356;2023-03-01T08:12:07;95182.44;;;2.63;79.96
49999;BME280;68071;45.062;7.356;2023-03-01T08:15:11;95197.97;;;2.43;79.17
49999;BME280;68071;45.062;7.356;2023-03-01T08:18:16;95201.22;;;2.65;81.06
49999;BME280;68071;45.062;7.356;2023-03-01T08:21:21;95198.88;;;3.02;80.95
49999;BME280;68071;45.062;7.356;2023-03-01T08:24:25;95202.94;;;3.48;78.94
49999;BME280;68071;45.062;7.356;2023-03-01T08:27:29;95202.16;;;3.71;78.42
49999;BME280;68071;45.062;7.356;2023-03-01T08:30:34;95198.81;;;4.01;76.86
49999;BME280;68071;45.062;7.356;2023-03-01T08:33:38;95207.25;;;4.15;74.33
49999;BME280;68071;45.062;7.356;2023-03-01T08:36:44;95205.06;;;4.01;74.12
49999;BME280;68071;45.062;7.356;2023-03-01T08:39:48;95197.88;;;2.91;78.03
49999;BME280;68071;45.062;7.356;2023-03-01T08:42:52;95199.63;;;2.64;76.16
49999;BME280;68071;45.062;7.356;2023-03-01T08:45:56;95197.69;;;2.64;75.59
49999;BME280;68071;45.062;7.356;2023-03-01T08:49:04;95200.81;;;3.22;77.98
49999;BME280;68071;45.062;7.356;2023-03-01T08:52:08;95199.19;;;3.37;73.13
49999;BME280;68071;45.062;7.356;2023-03-01T08:55:12;95194.25;;;3.85;71.57
49999;BME280;68071;45.062;7.356;2023-03-01T08:58:18;95194.97;;;4.05;71.13
49999;BME280;68071;45.062;7.356;2023-03-01T09:01:22;95186.59;;;4.18;68.85
49999;BME280;68071;45.062;7.356;2023-03-01T09:04:26;95187.88;;;4.24;67.57
49999;BME280;68071;45.062;7.356;2023-03-01T09:07:30;95190.47;;;4.17;69.06
49999;BME280;68071;45.062;7.356;2023-03-01T09:10:37;95183.94;;;4.48;66.51
49999;BME280;68071;45.062;7.356;2023-03-01T09:13:41;95192.53;;;4.47;68.97
49999;BME280;68071;45.062;7.356;2023-03-01T09:16:46;95191.75;;;4.00;71.08
49999;BME280;68071;45.062;7.356;2023-03-01T09:19:50;95181.00;;;4.34;70.38
49999;BME280;68071;45.062;7.356;2023-03-01T09:22:54;95174.94;;;4.75;68.88
49999;BME280;68071;45.062;7.356;2023-03-01T09:25:58;95178.97;;;4.84;67.37
49999;BME280;68071;45.062;7.356;2023-03-01T09:29:02;95159.72;;;4.50;70.29
49999;BME280;68071;45.062;7.356;2023-03-01T09:32:06;95165.16;;;5.04;67.57
49999;BME280;68071;45.062;7.356;2023-03-01T09:35:12;95162.56;;;5.15;66.70
49999;BME280;68071;45.062;7.356;2023-03-01T09:38:16;95154.72;;;5.13;68.18
49999;BME280;68071;45.062;7.356;2023-03-01T09:47:50;95169.88;;;5.04;66.01
49999;BME280;68071;45.062;7.356;2023-03-01T09:50:55;95168.63;;;4.44;68.40
49999;BME280;68071;45.062;7.356;2023-03-01T09:54:04;95156.47;;;4.68;67.04
49999;BME280;68071;45.062;7.356;2023-03-01T10:07:32;95150.84;;;5.18;62.88
49999;BME280;68071;45.062;7.356;2023-03-01T10:10:39;95151.28;;;4.90;64.99
49999;BME280;68071;45.062;7.356;2023-03-01T10:20:55;95134.16;;;4.96;64.52
49999;BME280;68071;45.062;7.356;2023-03-01T10:24:10;95122.44;;;5.30;63.57
49999;BME280;68071;45.062;7.356;2023-03-01T10:30:34;95125.53;;;5.66;65.03
49999;BME280;68071;45.062;7.356;2023-03-01T10:33:41;95118.03;;;5.59;62.40
49999;BME280;68071;45.062;7.356;2023-03-01T10:36:50;95119.19;;;5.21;65.61
49999;BME280;68071;45.062;7.356;2023-03-01T10:40:09;95119.19;;;5.55;64.41
49999;BME280;68071;45.062;7.356;2023-03-01T10:43:13;95117.63;;;5.99;61.18
49999;BME280;68071;45.062;7.356;2023-03-01T10:46:33;95116.19;;;6.12;59.64
49999;BME280;68071;45.062;7.356;2023-03-01T10:49:52;95117.19;;;5.93;62.65
49999;BME280;68071;45.062;7.356;2023-03-01T10:52:58;95103.72;;;4.71;64.36
49999;BME280;68071;45.062;7.356;2023-03-01T10:56:10;95097.84;;;5.03;63.31
49999;BME280;68071;45.062;7.356;2023-03-01T11:02:30;95088.81;;;4.38;68.08
49999;BME280;68071;45.062;7.356;2023-03-01T11:05:36;95084.13;;;4.99;65.57
49999;BME280;68071;45.062;7.356;2023-03-01T11:08:46;95079.69;;;5.63;59.51
49999;BME280;68071;45.062;7.356;2023-03-01T11:11:55;95083.13;;;5.53;63.61
49999;BME280;68071;45.062;7.356;2023-03-01T11:15:00;95069.31;;;5.87;60.40
49999;BME280;68071;45.062;7.356;2023-03-01T11:18:05;95072.34;;;5.74;63.65
49999;BME280;68071;45.062;7.356;2023-03-01T11:21:22;95059.16;;;5.91;64.74
49999;BME280;68071;45.062;7.356;2023-03-01T11:24:47;95049.28;;;5.83;62.22
49999;BME280;68071;45.062;7.356;2023-03-01T11:27:53;95046.34;;;6.02;60.96
49999;BME280;68071;45.062;7.356;2023-03-01T11:31:04;95035.47;;;5.68;61.06
49999;BME280;68071;45.062;7.356;2023-03-01T11:34:13;95021.44;;;6.33;59.15
49999;BME280;68071;45.062;7.356;2023-03-01T11:37:41;95012.09;;;6.41;58.41
49999;BME280;68071;45.062;7.356;2023-03-01T11:41:10;95001.06;;;6.38;58.00
49999;BME280;68071;45.062;7.356;2023-03-01T11:44:24;94984.34;;;6.61;57.19
49999;BME280;68071;45.062;7.356;2023-03-01T11:47:37;94979.56;;;6.47;58.80
49999;BME280;68071;45.062;7.356;2023-03-01T11:50:48;94980.03;;;6.67;60.53
49999;BME280;68071;45.062;7.356;2023-03-01T11:54:38;94977.69;;;6.62;59.71
49999;BME280;68071;45.062;7.356;2023-03-01T12:05:05;94955.31;;;6.63;58.49
49999;BME280;68071;45.062;7.356;2023-03-01T12:18:54;94942.47;;;7.04;61.24
49999;BME280;68071;45.062;7.356;2023-03-01T12:28:29;94924.81;;;7.16;59.45
49999;BME280;68071;45.062;7.356;2023-03-01T12:35:06;94917.22;;;6.58;60.92
49999;BME280;68071;45.062;7.356;2023-03-01T12:41:46;94907.09;;;6.91;61.62
49999;BME280;68071;45.062;7.356;2023-03-01T12:51:43;94885.47;;;6.57;66.37
49999;BME280;68071;45.062;7.356;2023-03-01T12:54:51;94884.56;;;6.20;71.28
49999;BME280;68071;45.062;7.356;2023-03-01T13:01:21;94883.88;;;6.56;69.84
49999;BME280;68071;45.062;7.356;2023-03-01T13:07:58;94871.97;;;6.05;70.93
49999;BME280;68071;45.062;7.356;2023-03-01T13:11:11;94862.13;;;6.00;69.16
49999;BME280;68071;45.062;7.356;2023-03-01T13:17:40;94877.47;;;6.05;70.19
49999;BME280;68071;45.062;7.356;2023-03-01T13:20:47;94882.13;;;6.01;70.45
49999;BME280;68071;45.062;7.356;2023-03-01T13:23:51;94882.06;;;5.94;71.11
49999;BME280;68071;45.062;7.356;2023-03-01T13:27:22;94882.00;;;5.79;74.69
49999;BME280;68071;45.062;7.356;2023-03-01T13:33:47;94873.41;;;5.88;69.98
49999;BME280;68071;45.062;7.356;2023-03-01T13:36:51;94861.34;;;5.29;73.67
49999;BME280;68071;45.062;7.356;2023-03-01T13:39:58;94869.25;;;5.45;72.64
49999;BME280;68071;45.062;7.356;2023-03-01T13:43:35;94856.84;;;5.70;71.96
49999;BME280;68071;45.062;7.356;2023-03-01T13:46:40;94853.03;;;5.85;71.18
49999;BME280;68071;45.062;7.356;2023-03-01T13:50:00;94848.31;;;5.82;71.19
49999;BME280;68071;45.062;7.356;2023-03-01T13:53:06;94840.44;;;5.73;71.51
49999;BME280;68071;45.062;7.356;2023-03-01T13:56:25;94842.84;;;5.82;70.94
49999;BME280;68071;45.062;7.356;2023-03-01T13:59:31;94848.25;;;5.71;72.66
49999;BME280;68071;45.062;7.356;2023-03-01T14:02:35;94858.31;;;5.49;73.88
49999;BME280;68071;45.062;7.356;2023-03-01T14:05:43;94854.03;;;5.52;74.48
49999;BME280;68071;45.062;7.356;2023-03-01T14:08:49;94846.69;;;5.70;74.26
49999;BME280;68071;45.062;7.356;2023-03-01T14:12:26;94844.41;;;5.87;72.14
49999;BME280;68071;45.062;7.356;2023-03-01T14:15:42;94849.75;;;5.58;72.76
49999;BME280;68071;45.062;7.356;2023-03-01T14:22:32;94850.19;;;5.64;72.52
49999;BME280;68071;45.062;7.356;2023-03-01T14:25:37;94841.03;;;5.38;75.23
49999;BME280;68071;45.062;7.356;2023-03-01T14:28:42;94842.66;;;5.50;73.80
49999;BME280;68071;45.062;7.356;2023-03-01T14:31:47;94853.00;;;5.82;73.13
49999;BME280;68071;45.062;7.356;2023-03-01T14:34:51;94858.88;;;5.80;71.91
49999;BME280;68071;45.062;7.356;2023-03-01T14:37:55;94854.03;;;5.52;72.84
49999;BME280;68071;45.062;7.356;2023-03-01T14:41:03;94861.44;;;5.48;71.92
49999;BME280;68071;45.062;7.356;2023-03-01T14:44:15;94862.94;;;5.34;73.00
49999;BME280;68071;45.062;7.356;2023-03-01T14:47:32;94884.34;;;5.18;73.14
49999;BME280;68071;45.062;7.356;2023-03-01T14:50:41;94881.94;;;5.12;74.77
49999;BME280;68071;45.062;7.356;2023-03-01T14:53:46;94891.88;;;4.87;76.76
49999;BME280;68071;45.062;7.356;2023-03-01T14:56:51;94902.41;;;4.81;76.82
49999;BME280;68071;45.062;7.356;2023-03-01T15:00:02;94913.75;;;4.83;76.45
49999;BME280;68071;45.062;7.356;2023-03-01T15:03:13;94922.41;;;4.85;76.36
49999;BME280;68071;45.062;7.356;2023-03-01T15:06:20;94923.31;;;5.00;74.43
49999;BME280;68071;45.062;7.356;2023-03-01T15:09:25;94932.66;;;4.95;75.48
49999;BME280;68071;45.062;7.356;2023-03-01T15:12:38;94943.91;;;4.87;73.81
49999;BME280;68071;45.062;7.356;2023-03-01T15:15:44;94948.84;;;4.74;74.92
49999;BME280;68071;45.062;7.356;2023-03-01T15:18:58;94949.81;;;4.89;75.75
49999;BME280;68071;45.062;7.356;2023-03-01T15:22:03;94955.22;;;4.81;75.18
49999;BME280;68071;45.062;7.356;2023-03-01T15:25:17;94962.56;;;4.39;77.19
49999;BME280;68071;45.062;7.356;2023-03-01T15:28:30;94965.56;;;4.00;77.29
49999;BME280;68071;45.062;7.356;2023-03-01T15:31:36;94970.97;;;3.93;77.90
49999;BME280;68071;45.062;7.356;2023-03-01T15:34:42;94975.00;;;4.03;75.44
49999;BME280;68071;45.062;7.356;2023-03-01T15:37:48;94981.41;;;4.14;78.82
49999;BME280;68071;45.062;7.356;2023-03-01T15:40:52;94978.81;;;4.59;75.64
49999;BME280;68071;45.062;7.356;2023-03-01T15:43:58;94977.31;;;4.62;76.51
49999;BME280;68071;45.062;7.356;2023-03-01T15:47:21;94983.59;;;4.66;74.79
49999;BME280;68071;45.062;7.356;2023-03-01T15:50:28;94986.28;;;4.62;74.37
49999;BME280;68071;45.062;7.356;2023-03-01T15:53:37;94989.00;;;4.59;74.73
49999;BME280;68071;45.062;7.356;2023-03-01T15:56:41;94988.25;;;4.62;77.07
49999;BME280;68071;45.062;7.356;2023-03-01T15:59:45;94984.50;;;4.43;76.02
49999;BME280;68071;45.062;7.356;2023-03-01T16:02:49;94985.66;;;4.42;75.65
49999;BME280;68071;45.062;7.356;2023-03-01T16:05:52;94986.09;;;4.44;76.81
49999;BME280;68071;45.062;7.356;2023-03-01T16:08:57;94995.78;;;4.38;75.51
49999;BME280;68071;45.062;7.356;2023-03-01T16:12:01;94994.69;;;4.46;76.69
49999;BME280;68071;45.062;7.356;2023-03-01T16:15:16;94994.31;;;4.44;80.46
49999;BME280;68071;45.062;7.356;2023-03-01T16:18:20;95008.06;;;4.51;81.02
49999;BME280;68071;45.062;7.356;2023-03-01T16:21:25;95008.75;;;4.45;80.50
49999;BME280;68071;45.062;7.356;2023-03-01T16:24:29;95007.06;;;4.36;80.40
49999;BME280;68071;45.062;7.356;2023-03-01T16:27:33;95016.13;;;3.83;83.38
49999;BME280;68071;45.062;7.356;2023-03-01T16:30:38;95033.25;;;3.80;85.17
49999;BME280;68071;45.062;7.356;2023-03-01T16:33:45;95041.34;;;3.73;88.26
49999;BME280;68071;45.062;7.356;2023-03-01T16:36:56;95040.13;;;3.70;88.70
49999;BME280;68071;45.062;7.356;2023-03-01T16:40:00;95027.09;;;3.37;92.35
49999;BME280;68071;45.062;7.356;2023-03-01T16:43:04;95030.59;;;3.14;94.61
49999;BME280;68071;45.062;7.356;2023-03-01T16:46:14;95033.47;;;3.21;94.45
49999;BME280;68071;45.062;7.356;2023-03-01T16:49:18;95028.13;;;3.28;92.81
49999;BME280;68071;45.062;7.356;2023-03-01T16:52:22;95022.41;;;3.14;94.47
49999;BME280;68071;45.062;7.356;2023-03-01T16:55:26;95039.72;;;3.45;92.15
49999;BME280;68071;45.062;7.356;2023-03-01T16:58:30;95032.84;;;2.88;94.85
49999;BME280;68071;45.062;7.356;2023-03-01T17:01:34;95032.63;;;2.97;93.52
49999;BME280;68071;45.062;7.356;2023-03-01T17:04:44;95033.81;;;2.77;95.95
49999;BME280;68071;45.062;7.356;2023-03-01T17:07:50;95030.09;;;3.08;94.11
49999;BME280;68071;45.062;7.356;2023-03-01T17:10:54;95025.88;;;3.11;93.37
49999;BME280;68071;45.062;7.356;2023-03-01T17:13:58;95038.75;;;2.91;94.56
49999;BME280;68071;45.062;7.356;2023-03-01T17:17:01;95031.38;;;2.91;94.91
49999;BME280;68071;45.062;7.356;2023-03-01T17:20:06;95027.72;;;2.44;97.34
49999;BME280;68071;45.062;7.356;2023-03-01T17:23:11;95029.09;;;2.34;99.24
49999;BME280;68071;45.062;7.356;2023-03-01T17:26:15;95032.75;;;2.42;97.81
49999;BME280;68071;45.062;7.356;2023-03-01T17:29:20;95032.97;;;2.53;97.60
49999;BME280;68071;45.062;7.356;2023-03-01T17:32:24;95030.22;;;2.72;97.63
49999;BME280;68071;45.062;7.356;2023-03-01T17:35:28;95039.63;;;2.75;98.13
49999;BME280;68071;45.062;7.356;2023-03-01T17:38:31;95037.69;;;2.01;100.00
49999;BME280;68071;45.062;7.356;2023-03-01T17:41:35;95034.53;;;2.34;99.87
49999;BME280;68071;45.062;7.356;2023-03-01T17:44:39;95040.84;;;2.58;99.45
49999;BME280;68071;45.062;7.356;2023-03-01T17:47:43;95046.50;;;2.49;100.00
49999;BME280;68071;45.062;7.356;2023-03-01T17:50:47;95053.09;;;2.29;100.00
49999;BME280;68071;45.062;7.356;2023-03-01T17:53:51;95065.69;;;2.33;100.00
49999;BME280;68071;45.062;7.356;2023-03-01T17:56:55;95063.16;;;2.24;100.00
49999;BME280;68071;45.062;7.356;2023-03-01T18:00:02;95061.63;;;2.27;100.00
49999;BME280;68071;45.062;7.356;2023-03-01T18:03:15;95067.88;;;2.27;100.00
49999;BME280;68071;45.062;7.356;2023-03-01T18:06:21;95065.84;;;2.05;100.00
49999;BME280;68071;45.062;7.356;2023-03-01T18:09:26;95064.38;;;1.75;100.00
49999;BME280;68071;45.062;7.356;2023-03-01T18:12:30;95065.78;;;1.53;100.00
49999;BME280;68071;45.062;7.356;2023-03-01T18:15:35;95059.19;;;1.22;100.00
49999;BME280;68071;45.062;7.356;2023-03-01T18:18:40;95082.63;;;1.27;100.00